Portada
METAR-TAF:

METAR-TAF

Aeroports :

Biskra, Algèria

latitud: 34-48N, longitud: 005-44E, altitud: 87 m

Observació

L'informe es va fer fa 33 minuts, a les 10:00 UTC
Vent 10 kt del Oest/Nord-Oest
Temperatura 26°C
Humitat 51%
Pressió 1016 hPa
Visibilitat 10 km o més
sense núvols per sota de 1500 mi sense presència de cumulonimbus.

METAR: DAUB 221000Z 30010KT CAVOK 26/15 Q1016

Hora: 11:33 (10:33 UTC)

Pronòstic

L'informe es va fer fa 5 hores i 33 minuts, a les 05:00 UTC
Pronòstic vàlid del 22 a les 06 UTC al 23 a les 06 UTC
Vent 8 kt del Oest
Visibilitat 10 km o més
Escasses núvols a una alçada de 4000 ft
Evolucionant progressivament
l' 22 a les 08 UTC al 22 a les 10 UTC
Vent 16 kt del Nord/Nord-Oest
Probabilitat 30% :
Temporalment
l' 22 a les 12 UTC al 22 a les 20 UTC
Escasses núvols a una alçada de 3300 ft, Cumulus congestus.

TAF: DAUB 220500Z 2206/2306 28008KT 9999 FEW040 BECMG 2208/2210 34016KT PROB30 TEMPO 2212/2220 FEW033TCU

Observacions i pronòstics meteorològics de més de 4000 aeroports (METAR i TAF).

Les estacions disponibles són els punts grocs i vermells al mapa.

Posi el ratolí al punt desitjat per veure el nom de l'estació.

Feu clic per veure les observacions i els pronòstics meteorològics.

Per canviar el mapa: feu clic els botons verds amb una creu de color negre per apropar; al botó verd amb un guió per allunyar la imatge; o en les fletxes verdes per a mapes adjacents.


METAR-TAF: